TimeEST,TemperatureF,Dew PointF,Humidity,Sea Level PressureIn,VisibilityMPH,Wind Direction,Wind SpeedMPH,Gust SpeedMPH,PrecipitationIn,Events,Conditions,WindDirDegrees,DateUTC
12:35 AM,42.8,39.6,88,30.15,10.0,Calm,Calm,-,N/A,,Clear,0,2013-01-07 05:35:00
12:55 AM,42.3,38.1,85,30.15,10.0,Calm,Calm,-,N/A,,Clear,0,2013-01-07 05:55:00
1:35 AM,39.6,36.0,87,30.15,10.0,Calm,Calm,-,N/A,,Clear,0,2013-01-07 06:35:00
1:55 AM,39.0,35.6,88,30.17,10.0,Calm,Calm,-,N/A,,Clear,0,2013-01-07 06:55:00
2:15 AM,38.8,35.1,86,30.17,10.0,Calm,Calm,-,N/A,,Clear,0,2013-01-07 07:15:00
2:35 AM,38.5,34.5,86,30.18,10.0,Calm,Calm,-,N/A,,Clear,0,2013-01-07 07:35:00
3:15 AM,38.3,34.0,84,30.18,10.0,Calm,Calm,-,N/A,,Clear,0,2013-01-07 08:15:00
3:35 AM,38.3,33.8,84,30.18,10.0,Calm,Calm,-,N/A,,Clear,0,2013-01-07 08:35:00
3:55 AM,37.9,33.4,84,30.19,10.0,Calm,Calm,-,N/A,,Clear,0,2013-01-07 08:55:00
4:15 AM,38.5,33.6,83,30.19,10.0,Calm,Calm,-,N/A,,Clear,0,2013-01-07 09:15:00
4:35 AM,38.1,33.3,83,30.20,10.0,Calm,Calm,-,N/A,,Clear,0,2013-01-07 09:35:00
4:55 AM,36.5,33.1,87,30.21,10.0,Calm,Calm,-,N/A,,Clear,0,2013-01-07 09:55:00
5:15 AM,37.0,32.9,85,30.21,10.0,Calm,Calm,-,N/A,,Clear,0,2013-01-07 10:15:00
5:55 AM,36.0,32.0,86,30.25,10.0,Calm,Calm,-,N/A,,Clear,0,2013-01-07 10:55:00
6:15 AM,35.8,32.0,86,30.26,10.0,Calm,Calm,-,N/A,,Clear,0,2013-01-07 11:15:00
6:35 AM,36.0,31.8,85,30.27,10.0,Calm,Calm,-,N/A,,Clear,0,2013-01-07 11:35:00
6:55 AM,34.5,30.7,86,30.28,10.0,Calm,Calm,-,N/A,,Clear,0,2013-01-07 11:55:00
7:15 AM,35.2,31.5,86,30.29,10.0,Calm,Calm,-,N/A,,Clear,0,2013-01-07 12:15:00
7:35 AM,33.3,29.8,87,30.30,10.0,Calm,Calm,-,N/A,,Clear,0,2013-01-07 12:35:00
7:55 AM,33.1,30.6,90,30.32,10.0,Calm,Calm,-,N/A,,Clear,0,2013-01-07 12:55:00
8:15 AM,36.5,32.0,84,30.33,10.0,Calm,Calm,-,N/A,,Clear,0,2013-01-07 13:15:00
8:35 AM,38.7,32.9,80,30.35,10.0,Calm,Calm,-,N/A,,Clear,0,2013-01-07 13:35:00
8:55 AM,40.8,33.6,76,30.36,10.0,Calm,Calm,-,N/A,,Clear,0,2013-01-07 13:55:00
9:15 AM,42.6,34.5,73,30.38,10.0,Calm,Calm,-,N/A,,Clear,0,2013-01-07 14:15:00
9:35 AM,44.2,34.9,70,30.39,10.0,Calm,Calm,-,N/A,,Clear,0,2013-01-07 14:35:00
9:55 AM,45.9,35.1,66,30.40,10.0,NNE,8.1,-,N/A,,Clear,30,2013-01-07 14:55:00
10:15 AM,47.3,34.7,62,30.40,10.0,Calm,Calm,-,N/A,,Clear,0,2013-01-07 15:15:00
10:35 AM,47.7,34.2,60,30.40,10.0,NNE,5.8,18.4,N/A,,Clear,30,2013-01-07 15:35:00
10:55 AM,48.2,34.2,58,30.40,10.0,NNE,11.5,16.1,N/A,,Clear,30,2013-01-07 15:55:00
11:15 AM,49.1,34.5,57,30.39,10.0,Calm,Calm,-,N/A,,Clear,0,2013-01-07 16:15:00
11:35 AM,50.0,34.5,55,30.38,10.0,Calm,Calm,-,N/A,,Clear,0,2013-01-07 16:35:00
11:55 AM,50.5,35.1,55,30.38,10.0,Calm,Calm,-,N/A,,Clear,0,2013-01-07 16:55:00
12:35 PM,51.3,35.1,54,30.38,10.0,Calm,Calm,-,N/A,,Scattered Clouds,0,2013-01-07 17:35:00
12:55 PM,50.4,34.0,53,30.39,10.0,Calm,Calm,-,N/A,,Scattered Clouds,0,2013-01-07 17:55:00
1:15 PM,50.4,33.1,52,30.38,10.0,Calm,Calm,-,N/A,,Mostly Cloudy,0,2013-01-07 18:15:00
1:55 PM,51.3,32.4,48,30.39,10.0,Calm,Calm,-,N/A,,Scattered Clouds,0,2013-01-07 18:55:00
2:15 PM,51.3,32.2,48,30.39,10.0,Calm,Calm,-,N/A,,Scattered Clouds,0,2013-01-07 19:15:00
2:55 PM,51.3,31.8,47,30.39,10.0,Calm,Calm,-,N/A,,Clear,0,2013-01-07 19:55:00
3:15 PM,51.4,31.5,46,30.39,10.0,Calm,Calm,-,N/A,,Clear,0,2013-01-07 20:15:00
3:35 PM,50.9,31.6,48,30.40,10.0,Calm,Calm,-,N/A,,Clear,0,2013-01-07 20:35:00
3:55 PM,50.4,32.0,49,30.41,10.0,Calm,Calm,-,N/A,,Clear,0,2013-01-07 20:55:00
4:15 PM,49.5,31.6,50,30.41,10.0,Calm,Calm,-,N/A,,Clear,0,2013-01-07 21:15:00
4:35 PM,46.9,35.4,64,30.41,10.0,Calm,Calm,-,N/A,,Clear,0,2013-01-07 21:35:00
4:55 PM,44.8,35.4,70,30.42,10.0,Calm,Calm,-,N/A,,Clear,0,2013-01-07 21:55:00
5:15 PM,43.5,35.1,72,30.43,10.0,Calm,Calm,-,N/A,,Clear,0,2013-01-07 22:15:00
5:55 PM,41.4,34.5,77,30.44,10.0,Calm,Calm,-,N/A,,Clear,0,2013-01-07 22:55:00
6:15 PM,41.2,35.2,79,30.44,10.0,Calm,Calm,-,N/A,,Clear,0,2013-01-07 23:15:00
6:35 PM,40.8,35.8,82,30.45,10.0,Calm,Calm,-,N/A,,Clear,0,2013-01-07 23:35:00
6:55 PM,41.2,36.7,84,30.46,10.0,Calm,Calm,-,N/A,,Clear,0,2013-01-07 23:55:00
7:15 PM,39.6,35.2,85,30.46,10.0,Calm,Calm,-,N/A,,Clear,0,2013-01-08 00:15:00
7:35 PM,39.2,35.2,86,30.46,10.0,Calm,Calm,-,N/A,,Clear,0,2013-01-08 00:35:00
7:55 PM,38.3,34.9,87,30.46,10.0,Calm,Calm,-,N/A,,Clear,0,2013-01-08 00:55:00
8:15 PM,37.4,34.5,89,30.45,10.0,Calm,Calm,-,N/A,,Clear,0,2013-01-08 01:15:00
8:35 PM,35.8,33.8,92,30.46,10.0,Calm,Calm,-,N/A,,Clear,0,2013-01-08 01:35:00
8:55 PM,35.1,33.1,92,30.46,10.0,Calm,Calm,-,N/A,,Clear,0,2013-01-08 01:55:00
9:15 PM,33.1,31.6,94,30.46,10.0,Calm,Calm,-,N/A,,Clear,0,2013-01-08 02:15:00
9:35 PM,33.4,32.0,94,30.46,10.0,Calm,Calm,-,N/A,,Clear,0,2013-01-08 02:35:00
9:55 PM,33.8,32.0,93,30.46,10.0,Calm,Calm,-,N/A,,Clear,0,2013-01-08 02:55:00
10:15 PM,32.9,31.6,95,30.46,10.0,Calm,Calm,-,N/A,,Clear,0,2013-01-08 03:15:00
10:35 PM,32.9,32.0,96,30.46,10.0,Calm,Calm,-,N/A,,Clear,0,2013-01-08 03:35:00
10:55 PM,32.4,31.8,98,30.46,7.0,Calm,Calm,-,N/A,,Clear,0,2013-01-08 03:55:00
11:15 PM,31.8,30.7,96,30.46,7.0,Calm,Calm,-,N/A,,Clear,0,2013-01-08 04:15:00
11:35 PM,30.9,29.8,96,30.46,5.0,Calm,Calm,-,N/A,,Clear,0,2013-01-08 04:35:00
11:55 PM,30.9,30.0,96,30.45,7.0,Calm,Calm,-,N/A,,Clear,0,2013-01-08 04:55:00